Terminal Aerodrome Forecast
Issued by NWS

Home | Current Version | Previous Version | Text Only | Print | Product List | Glossary On
Versions: 1 2 3 4 5 6 7 8 9 10 11 12 13 14 15 16 17 18 19 20 21 22 23 24 25 26 27
000
FTUS44 KOHX 291736
TAFCKV
TAF
KCKV 291736Z 2918/3018 28006KT P6SM SCT050 SCT150
     FM300100 34004KT P6SM SCT050 SCT150
      TEMPO 3010/3012 5SM BR
     FM301400 01007KT P6SM SCT250=

USA.gov is the U.S. government's official web portal to all federal, state and local government web resources and services.